createdAt,value
2019-01-09T00:00:54.420Z,1.018372
2019-01-09T00:02:04.006Z,1.018372
2019-01-09T00:03:13.567Z,1.008301
2019-01-09T00:04:23.149Z,1.058655
2019-01-09T00:05:32.685Z,1.018372
2019-01-09T00:06:42.282Z,1.038513
2019-01-09T00:07:51.852Z,1.018372
2019-01-09T00:09:00.400Z,1.018372
2019-01-09T00:10:09.985Z,1.018372
2019-01-09T00:11:19.537Z,1.038513
2019-01-09T00:12:29.132Z,1.048584
2019-01-09T00:13:38.677Z,1.11908
2019-01-09T00:14:48.273Z,1.12915
2019-01-09T00:15:57.833Z,1.169434
2019-01-09T00:17:07.384Z,1.169434
2019-01-09T00:18:16.972Z,1.12915
2019-01-09T00:19:26.573Z,1.139221
2019-01-09T00:20:36.155Z,1.169434
2019-01-09T00:21:45.727Z,1.199646
2019-01-09T00:22:55.274Z,1.219788
2019-01-09T00:24:04.888Z,1.199646
2019-01-09T00:25:14.450Z,1.260071
2019-01-09T00:26:24.014Z,1.239929
2019-01-09T00:27:33.640Z,1.280212
2019-01-09T00:28:43.199Z,1.239929
2019-01-09T00:29:52.739Z,1.239929
2019-01-09T00:31:02.299Z,1.239929
2019-01-09T00:32:11.854Z,1.239929
2019-01-09T00:33:21.441Z,1.189575
2019-01-09T00:34:30.988Z,1.12915
2019-01-09T00:35:40.555Z,1.048584
2019-01-09T00:36:50.150Z,1.008301
2019-01-09T00:37:59.686Z,0.988159
2019-01-09T00:39:09.247Z,1.008301
2019-01-09T00:40:18.801Z,1.008301
2019-01-09T00:41:28.344Z,0.978088
2019-01-09T00:42:37.894Z,0.957947
2019-01-09T00:43:46.507Z,0.947876
2019-01-09T00:44:55.973Z,0.937805
2019-01-09T00:46:05.581Z,0.947876
2019-01-09T00:47:15.103Z,0.937805
2019-01-09T00:48:24.675Z,0.947876
2019-01-09T00:49:34.210Z,0.947876
2019-01-09T00:50:43.760Z,0.957947
2019-01-09T00:51:53.316Z,0.957947
2019-01-09T00:53:02.865Z,0.957947
2019-01-09T00:54:12.425Z,0.978088
2019-01-09T00:55:22.009Z,1.008301
2019-01-09T00:56:30.549Z,1.078796
2019-01-09T00:57:40.096Z,1.058655
2019-01-09T00:58:49.634Z,1.098938
2019-01-09T00:59:59.183Z,1.11908
2019-01-09T01:01:08.750Z,1.12915
2019-01-09T01:02:18.295Z,1.098938
2019-01-09T01:03:27.843Z,1.098938
2019-01-09T01:04:37.417Z,1.11908
2019-01-09T01:05:46.966Z,1.169434
2019-01-09T01:06:56.507Z,1.189575
2019-01-09T01:08:06.075Z,1.199646
2019-01-09T01:09:15.624Z,1.219788
2019-01-09T01:10:25.198Z,1.229858
2019-01-09T01:11:34.738Z,1.199646
2019-01-09T01:12:44.286Z,1.169434
2019-01-09T01:13:53.830Z,1.159363
2019-01-09T01:15:03.371Z,1.159363
2019-01-09T01:16:12.968Z,1.159363
2019-01-09T01:17:22.539Z,1.169434
2019-01-09T01:18:32.071Z,1.189575
2019-01-09T01:19:41.610Z,1.189575
2019-01-09T01:20:51.186Z,1.229858
2019-01-09T01:22:00.767Z,1.229858
2019-01-09T01:23:09.318Z,1.229858
2019-01-09T01:24:18.856Z,1.189575
2019-01-09T01:25:28.364Z,1.169434
2019-01-09T01:26:37.950Z,1.098938
2019-01-09T01:27:47.502Z,1.038513
2019-01-09T01:28:57.057Z,0.978088
2019-01-09T01:30:06.591Z,0.937805
2019-01-09T01:31:16.161Z,0.87738
2019-01-09T01:32:25.688Z,0.857239
2019-01-09T01:33:35.311Z,0.86731
2019-01-09T01:34:44.778Z,0.87738
2019-01-09T01:35:54.746Z,0.917664
2019-01-09T01:37:03.890Z,0.947876
2019-01-09T01:38:13.462Z,0.957947
2019-01-09T01:39:22.990Z,0.978088
2019-01-09T01:40:32.551Z,0.957947
2019-01-09T01:41:42.174Z,0.988159
2019-01-09T01:42:51.758Z,0.988159
2019-01-09T01:44:01.297Z,1.038513
2019-01-09T01:45:10.871Z,1.078796
2019-01-09T01:46:20.460Z,1.098938
2019-01-09T01:47:30.041Z,1.12915
2019-01-09T01:48:39.639Z,1.12915
2019-01-09T01:49:49.173Z,1.12915
2019-01-09T01:50:58.785Z,1.11908
2019-01-09T01:52:08.428Z,1.139221
2019-01-09T01:53:17.995Z,1.169434
2019-01-09T01:54:27.573Z,1.12915
2019-01-09T01:55:37.135Z,1.12915
2019-01-09T01:56:46.635Z,1.098938
2019-01-09T01:57:55.220Z,1.048584
2019-01-09T01:59:04.780Z,1.038513
2019-01-09T02:00:14.449Z,0.978088
2019-01-09T02:01:23.985Z,0.917664
2019-01-09T02:02:33.501Z,0.86731
2019-01-09T02:03:43.031Z,0.827026
2019-01-09T02:04:52.561Z,0.776672
2019-01-09T02:06:03.823Z,0.756531
2019-01-09T02:07:12.697Z,0.736389
2019-01-09T02:08:22.272Z,0.696106
2019-01-09T02:09:31.797Z,0.686035
2019-01-09T02:10:41.344Z,0.696106
2019-01-09T02:11:50.896Z,0.696106
2019-01-09T02:13:00.478Z,0.675964
2019-01-09T02:14:10.098Z,0.675964
2019-01-09T02:15:19.668Z,0.675964
2019-01-09T02:16:29.233Z,0.675964
2019-01-09T02:17:38.757Z,0.756531
2019-01-09T02:18:48.293Z,0.796814
2019-01-09T02:19:57.846Z,0.827026
2019-01-09T02:21:07.409Z,0.837097
2019-01-09T02:22:16.928Z,0.806885
2019-01-09T02:23:26.477Z,0.776672
2019-01-09T02:24:36.059Z,0.736389
2019-01-09T02:25:45.613Z,0.696106
2019-01-09T02:26:55.247Z,0.686035
2019-01-09T02:28:04.785Z,0.645752
2019-01-09T02:29:14.312Z,0.61554
2019-01-09T02:30:23.878Z,0.62561
2019-01-09T02:31:33.471Z,0.645752
2019-01-09T02:32:43.005Z,0.655823
2019-01-09T02:33:52.549Z,0.686035
2019-01-09T02:35:02.194Z,0.675964
2019-01-09T02:36:13.429Z,0.675964
2019-01-09T02:37:21.253Z,0.675964
2019-01-09T02:38:30.798Z,0.675964
2019-01-09T02:39:40.355Z,0.686035
2019-01-09T02:40:51.961Z,0.696106
2019-01-09T02:41:59.629Z,0.696106
2019-01-09T02:43:09.307Z,0.686035
2019-01-09T02:44:18.912Z,0.696106
2019-01-09T02:45:29.600Z,0.686035
2019-01-09T02:46:39.218Z,0.686035
2019-01-09T02:47:48.972Z,0.686035
2019-01-09T02:48:58.668Z,0.726318
2019-01-09T02:50:08.474Z,0.736389
2019-01-09T02:51:18.188Z,0.726318
2019-01-09T02:52:27.800Z,0.736389
2019-01-09T02:53:37.462Z,0.766602
2019-01-09T02:54:47.072Z,0.756531
2019-01-09T02:55:56.704Z,0.756531
2019-01-09T02:57:06.428Z,0.796814
2019-01-09T02:58:16.024Z,0.837097
2019-01-09T02:59:25.645Z,0.806885
2019-01-09T03:00:35.409Z,0.796814
2019-01-09T03:01:45.134Z,0.776672
2019-01-09T03:02:54.822Z,0.756531
2019-01-09T03:04:04.477Z,0.696106
2019-01-09T03:05:14.150Z,0.645752
2019-01-09T03:06:23.712Z,0.645752
2019-01-09T03:07:33.277Z,0.62561
2019-01-09T03:08:42.826Z,0.61554
2019-01-09T03:09:52.386Z,0.585327
2019-01-09T03:11:01.960Z,0.575256
2019-01-09T03:12:11.510Z,0.555115
2019-01-09T03:13:21.033Z,0.575256
2019-01-09T03:14:30.552Z,0.555115
2019-01-09T03:15:40.101Z,0.524902
2019-01-09T03:16:49.610Z,0.313416
2019-01-09T03:17:59.133Z,0.222778
2019-01-09T03:19:08.670Z,0.162354
2019-01-09T03:20:18.241Z,0.112
2019-01-09T03:21:27.785Z,0.12207
2019-01-09T03:22:37.305Z,0.152283
2019-01-09T03:23:46.822Z,0.152283
2019-01-09T03:24:56.331Z,0.112
2019-01-09T03:26:05.884Z,0.112
2019-01-09T03:27:15.422Z,0.101929
2019-01-09T03:28:25.050Z,0.12207
2019-01-09T03:29:34.574Z,0.101929
2019-01-09T03:30:44.143Z,0.112
2019-01-09T03:31:53.690Z,0.071716
2019-01-09T03:33:03.242Z,0.071716
2019-01-09T03:34:12.758Z,0.051575
2019-01-09T03:35:22.286Z,0.071716
2019-01-09T03:36:32.721Z,0.081787
2019-01-09T03:37:41.314Z,0.071716
2019-01-09T03:38:50.863Z,0.051575
2019-01-09T03:40:00.380Z,0.051575
2019-01-09T03:41:09.929Z,0.051575
2019-01-09T03:42:19.461Z,0.041504
2019-01-09T03:43:29.000Z,0.041504
2019-01-09T03:44:38.544Z,0.041504
2019-01-09T03:45:48.100Z,0.011292
2019-01-09T03:46:57.617Z,-0.028992
2019-01-09T03:48:07.153Z,-0.059204
2019-01-09T03:49:16.683Z,-0.028992
2019-01-09T03:50:26.209Z,-0.099487
2019-01-09T03:51:35.769Z,-0.109558
2019-01-09T03:52:45.288Z,-0.1297
2019-01-09T03:53:54.841Z,-0.1297
2019-01-09T03:55:04.439Z,-0.139771
2019-01-09T03:56:13.988Z,-0.139771
2019-01-09T03:57:23.530Z,-0.139771
2019-01-09T03:58:33.073Z,-0.1297
2019-01-09T03:59:42.596Z,-0.1297
2019-01-09T04:00:52.150Z,-0.149841
2019-01-09T04:02:01.699Z,-0.149841
2019-01-09T04:03:12.230Z,-0.1297
2019-01-09T04:04:21.760Z,-0.099487
2019-01-09T04:05:31.298Z,-0.099487
2019-01-09T04:06:41.915Z,-0.099487
2019-01-09T04:07:50.350Z,-0.099487
2019-01-09T04:08:59.886Z,-0.099487
2019-01-09T04:10:09.414Z,-0.109558
2019-01-09T04:11:18.949Z,-0.109558
2019-01-09T04:12:28.468Z,-0.1297
2019-01-09T04:13:37.989Z,-0.1297
2019-01-09T04:14:47.530Z,-0.109558
2019-01-09T04:15:57.091Z,-0.1297
2019-01-09T04:17:06.603Z,-0.099487
2019-01-09T04:18:16.123Z,-0.079346
2019-01-09T04:19:25.644Z,-0.069275
2019-01-09T04:20:35.184Z,-0.079346
2019-01-09T04:21:44.718Z,-0.079346
2019-01-09T04:22:54.248Z,-0.069275
2019-01-09T04:24:03.784Z,-0.059204
2019-01-09T04:25:13.345Z,-0.028992
2019-01-09T04:26:22.885Z,-0.028992
2019-01-09T04:27:32.454Z,-0.028992
2019-01-09T04:28:41.989Z,-0.028992
2019-01-09T04:29:51.504Z,-0.028992
2019-01-09T04:31:01.026Z,-0.028992
2019-01-09T04:32:10.584Z,-0.018921
2019-01-09T04:33:20.135Z,-0.059204
2019-01-09T04:34:29.666Z,-0.079346
2019-01-09T04:35:39.253Z,-0.099487
2019-01-09T04:36:51.473Z,-0.109558
2019-01-09T04:37:58.343Z,-0.139771
2019-01-09T04:39:07.869Z,-0.200195
2019-01-09T04:40:17.392Z,-0.200195
2019-01-09T04:41:26.986Z,-0.210266
2019-01-09T04:42:36.572Z,-0.210266
2019-01-09T04:43:46.158Z,-0.210266
2019-01-09T04:44:55.712Z,-0.210266
2019-01-09T04:46:05.285Z,-0.230408
2019-01-09T04:47:14.840Z,-0.230408
2019-01-09T04:48:24.352Z,-0.26062
2019-01-09T04:49:33.894Z,-0.250549
2019-01-09T04:50:43.530Z,-0.250549
2019-01-09T04:51:53.111Z,-0.250549
2019-01-09T04:53:02.650Z,-0.230408
2019-01-09T04:54:12.174Z,-0.250549
2019-01-09T04:55:21.676Z,-0.26062
2019-01-09T04:56:31.223Z,-0.26062
2019-01-09T04:57:40.746Z,-0.26062
2019-01-09T04:58:50.267Z,-0.26062
2019-01-09T05:00:00.782Z,-0.26062
2019-01-09T05:01:10.320Z,-0.280762
2019-01-09T05:02:19.868Z,-0.290833
2019-01-09T05:03:29.415Z,-0.280762
2019-01-09T05:04:38.941Z,-0.290833
2019-01-09T05:05:50.068Z,-0.280762
2019-01-09T05:07:00.576Z,-0.280762
2019-01-09T05:08:09.102Z,-0.280762
2019-01-09T05:09:18.656Z,-0.280762
2019-01-09T05:10:29.175Z,-0.290833
2019-01-09T05:11:38.746Z,-0.290833
2019-01-09T05:12:48.274Z,-0.290833
2019-01-09T05:13:57.792Z,-0.321045
2019-01-09T05:15:07.313Z,-0.310974
2019-01-09T05:16:16.876Z,-0.321045
2019-01-09T05:17:26.402Z,-0.321045
2019-01-09T05:18:35.940Z,-0.321045
2019-01-09T05:19:45.454Z,-0.321045
2019-01-09T05:20:55.013Z,-0.310974
2019-01-09T05:22:04.563Z,-0.290833
2019-01-09T05:23:14.097Z,-0.310974
2019-01-09T05:24:23.653Z,-0.310974
2019-01-09T05:25:33.175Z,-0.310974
2019-01-09T05:26:42.708Z,-0.310974
2019-01-09T05:27:52.224Z,-0.310974
2019-01-09T05:29:01.753Z,-0.321045
2019-01-09T05:30:11.278Z,-0.310974
2019-01-09T05:31:20.860Z,-0.321045
2019-01-09T05:32:30.391Z,-0.321045
2019-01-09T05:33:40.907Z,-0.321045
2019-01-09T05:34:50.518Z,-0.310974
2019-01-09T05:36:00.019Z,-0.321045
2019-01-09T05:37:09.940Z,-0.290833
2019-01-09T05:38:20.815Z,-0.310974
2019-01-09T05:39:39.392Z,-0.290833
2019-01-09T05:40:40.824Z,-0.310974
2019-01-09T05:41:50.411Z,-0.290833
2019-01-09T05:43:00.009Z,-0.280762
2019-01-09T05:44:09.627Z,-0.290833
2019-01-09T05:45:19.209Z,-0.290833
2019-01-09T05:46:28.825Z,-0.280762
2019-01-09T05:47:38.472Z,-0.26062
2019-01-09T05:48:48.131Z,-0.26062
2019-01-09T05:49:57.719Z,-0.280762
2019-01-09T05:51:07.288Z,-0.280762
2019-01-09T05:52:16.921Z,-0.280762
2019-01-09T05:53:26.500Z,-0.290833
2019-01-09T05:54:36.122Z,-0.280762
2019-01-09T05:55:45.787Z,-0.280762
2019-01-09T05:56:55.471Z,-0.290833
2019-01-09T05:58:05.100Z,-0.290833
2019-01-09T05:59:14.684Z,-0.290833
2019-01-09T06:00:24.288Z,-0.280762
2019-01-09T06:01:33.912Z,-0.290833
2019-01-09T06:02:43.566Z,-0.290833
2019-01-09T06:03:53.198Z,-0.280762
2019-01-09T06:05:02.854Z,-0.280762
2019-01-09T06:06:12.413Z,-0.280762
2019-01-09T06:07:22.074Z,-0.26062
2019-01-09T06:08:30.701Z,-0.250549
2019-01-09T06:09:40.342Z,-0.26062
2019-01-09T06:10:49.945Z,-0.250549
2019-01-09T06:11:59.542Z,-0.230408
2019-01-09T06:13:09.158Z,-0.230408
2019-01-09T06:14:18.772Z,-0.230408
2019-01-09T06:15:28.384Z,-0.230408
2019-01-09T06:16:38.119Z,-0.230408
2019-01-09T06:17:47.876Z,-0.210266
2019-01-09T06:18:57.535Z,-0.230408
2019-01-09T06:20:07.283Z,-0.200195
2019-01-09T06:21:16.875Z,-0.200195
2019-01-09T06:22:26.409Z,-0.200195
2019-01-09T06:23:35.962Z,-0.180054
2019-01-09T06:24:45.569Z,-0.169983
2019-01-09T06:25:55.127Z,-0.139771
2019-01-09T06:27:04.651Z,-0.139771
2019-01-09T06:28:14.271Z,-0.149841
2019-01-09T06:29:23.842Z,-0.139771
2019-01-09T06:30:33.451Z,-0.139771
2019-01-09T06:31:43.003Z,-0.109558
2019-01-09T06:32:52.616Z,-0.1297
2019-01-09T06:34:02.246Z,-0.1297
2019-01-09T06:35:11.814Z,-0.109558
2019-01-09T06:36:21.347Z,-0.1297
2019-01-09T06:37:30.932Z,-0.099487
2019-01-09T06:38:40.532Z,-0.109558
2019-01-09T06:39:50.104Z,-0.099487
2019-01-09T06:40:59.645Z,-0.079346
2019-01-09T06:42:09.216Z,-0.079346
2019-01-09T06:43:18.791Z,-0.079346
2019-01-09T06:44:28.409Z,-0.079346
2019-01-09T06:45:38.011Z,-0.099487
2019-01-09T06:46:47.532Z,-0.109558
2019-01-09T06:47:57.215Z,-0.079346
2019-01-09T06:49:06.857Z,-0.069275
2019-01-09T06:50:16.439Z,-0.069275
2019-01-09T06:51:26.019Z,-0.069275
2019-01-09T06:52:35.571Z,0.001221
2019-01-09T06:53:45.245Z,-0.059204
2019-01-09T06:54:54.772Z,-0.069275
2019-01-09T06:56:04.294Z,-0.079346
2019-01-09T06:57:13.793Z,-0.018921
2019-01-09T06:58:23.491Z,-0.059204
2019-01-09T06:59:32.963Z,-0.069275
2019-01-09T07:00:42.530Z,-0.099487
2019-01-09T07:01:52.132Z,-0.139771
2019-01-09T07:03:01.695Z,-0.169983
2019-01-09T07:04:11.231Z,-0.149841
2019-01-09T07:05:20.830Z,-0.169983
2019-01-09T07:06:30.356Z,-0.149841
2019-01-09T07:07:39.890Z,-0.169983
2019-01-09T07:08:49.497Z,-0.180054
2019-01-09T07:10:00.869Z,-0.180054
2019-01-09T07:11:08.544Z,-0.169983
2019-01-09T07:12:18.138Z,-0.180054
2019-01-09T07:13:27.697Z,-0.180054
2019-01-09T07:14:37.248Z,-0.200195
2019-01-09T07:15:46.800Z,-0.210266
2019-01-09T07:16:56.323Z,-0.200195
2019-01-09T07:18:05.929Z,-0.200195
2019-01-09T07:19:15.445Z,-0.210266
2019-01-09T07:20:24.989Z,-0.210266
2019-01-09T07:21:35.518Z,-0.210266
2019-01-09T07:22:46.022Z,-0.210266
2019-01-09T07:23:55.582Z,-0.230408
2019-01-09T07:25:05.105Z,-0.210266
2019-01-09T07:26:14.613Z,-0.210266
2019-01-09T07:27:24.151Z,-0.210266
2019-01-09T07:28:33.674Z,-0.230408
2019-01-09T07:29:43.228Z,-0.230408
2019-01-09T07:30:52.713Z,-0.250549
2019-01-09T07:32:02.239Z,-0.210266
2019-01-09T07:33:11.779Z,-0.250549
2019-01-09T07:34:21.324Z,-0.230408
2019-01-09T07:35:30.844Z,-0.230408
2019-01-09T07:36:40.393Z,-0.250549
2019-01-09T07:37:49.925Z,-0.230408
2019-01-09T07:38:59.559Z,-0.210266
2019-01-09T07:40:08.113Z,-0.250549
2019-01-09T07:41:17.626Z,-0.210266
2019-01-09T07:42:27.152Z,-0.200195
2019-01-09T07:43:36.728Z,-0.210266
2019-01-09T07:44:46.230Z,-0.200195
2019-01-09T07:45:55.762Z,-0.230408
2019-01-09T07:47:05.291Z,-0.230408
2019-01-09T07:48:14.840Z,-0.230408
2019-01-09T07:49:24.380Z,-0.210266
2019-01-09T07:50:33.936Z,-0.210266
2019-01-09T07:51:43.469Z,-0.230408
2019-01-09T07:52:53.026Z,-0.200195
2019-01-09T07:54:02.585Z,-0.180054
2019-01-09T07:55:12.120Z,-0.149841
2019-01-09T07:56:21.636Z,-0.180054
2019-01-09T07:57:31.201Z,-0.169983
2019-01-09T07:58:40.745Z,-0.169983
2019-01-09T07:59:50.349Z,-0.149841
2019-01-09T08:00:59.819Z,-0.139771
2019-01-09T08:02:09.336Z,-0.139771
2019-01-09T08:03:18.906Z,-0.109558
2019-01-09T08:04:28.447Z,-0.099487
2019-01-09T08:05:37.991Z,-0.109558
2019-01-09T08:06:47.522Z,-0.109558
2019-01-09T08:07:57.062Z,-0.1297
2019-01-09T08:09:06.634Z,-0.1297
2019-01-09T08:10:16.185Z,-0.139771
2019-01-09T08:11:25.676Z,-0.149841
2019-01-09T08:12:35.181Z,-0.169983
2019-01-09T08:13:44.730Z,-0.149841
2019-01-09T08:14:54.241Z,-0.250549
2019-01-09T08:16:03.849Z,-0.341187
2019-01-09T08:17:13.326Z,-0.411682
2019-01-09T08:18:22.833Z,-0.462036
2019-01-09T08:19:32.379Z,-0.592957
2019-01-09T08:20:41.909Z,-0.683594
2019-01-09T08:21:51.421Z,-0.703735
2019-01-09T08:23:00.954Z,-0.683594
2019-01-09T08:24:10.495Z,-0.713806
2019-01-09T08:25:18.999Z,-0.754089
2019-01-09T08:26:30.446Z,-0.774231
2019-01-09T08:27:55.990Z,-0.744019
2019-01-09T08:29:05.556Z,-0.683594
2019-01-09T08:30:15.081Z,-0.623169
2019-01-09T08:31:24.667Z,-0.592957
2019-01-09T08:32:34.197Z,-0.542603
2019-01-09T08:33:43.774Z,-0.532532
2019-01-09T08:34:53.310Z,-0.441895
2019-01-09T08:36:02.846Z,-0.411682
2019-01-09T08:37:12.409Z,-0.361328
2019-01-09T08:38:21.927Z,-0.321045
2019-01-09T08:39:31.487Z,-0.341187
2019-01-09T08:40:41.017Z,-0.280762
2019-01-09T08:41:50.546Z,-0.280762
2019-01-09T08:43:00.103Z,-0.230408
2019-01-09T08:44:09.661Z,-0.230408
2019-01-09T08:45:19.192Z,-0.169983
2019-01-09T08:46:28.746Z,-0.1297
2019-01-09T08:47:38.263Z,-0.099487
2019-01-09T08:48:47.789Z,-0.069275
2019-01-09T08:49:57.307Z,-0.018921
2019-01-09T08:51:06.837Z,-0.028992
2019-01-09T08:52:16.379Z,0.011292
2019-01-09T08:53:25.922Z,0.041504
2019-01-09T08:54:35.450Z,0.001221
2019-01-09T08:55:44.980Z,0.031433
2019-01-09T08:56:54.541Z,0.001221
2019-01-09T08:58:04.066Z,-0.028992
2019-01-09T08:59:13.654Z,-0.059204
2019-01-09T09:00:23.190Z,-0.079346
2019-01-09T09:01:32.745Z,-0.109558
2019-01-09T09:02:42.274Z,-0.149841
2019-01-09T09:03:51.833Z,-0.149841
2019-01-09T09:05:01.378Z,-0.149841
2019-01-09T09:06:10.918Z,-0.139771
2019-01-09T09:07:20.421Z,-0.1297
2019-01-09T09:08:29.958Z,-0.250549
2019-01-09T09:09:39.487Z,-0.26062
2019-01-09T09:10:49.045Z,-0.290833
2019-01-09T09:11:58.596Z,-0.321045
2019-01-09T09:13:08.130Z,-0.341187
2019-01-09T09:14:17.660Z,-0.391541
2019-01-09T09:15:27.214Z,-0.391541
2019-01-09T09:16:37.047Z,-0.361328
2019-01-09T09:17:46.292Z,-0.351257
2019-01-09T09:18:55.812Z,-0.351257
2019-01-09T09:20:05.349Z,-0.341187
2019-01-09T09:21:14.878Z,-0.351257
2019-01-09T09:22:24.420Z,-0.341187
2019-01-09T09:23:33.952Z,-0.351257
2019-01-09T09:24:43.494Z,-0.321045
2019-01-09T09:25:53.027Z,-0.310974
2019-01-09T09:27:02.533Z,-0.290833
2019-01-09T09:28:12.080Z,-0.26062
2019-01-09T09:29:21.610Z,-0.26062
2019-01-09T09:30:32.130Z,-0.26062
2019-01-09T09:31:41.654Z,-0.230408
2019-01-09T09:32:51.213Z,-0.250549
2019-01-09T09:34:00.754Z,-0.180054
2019-01-09T09:35:10.321Z,-0.139771
2019-01-09T09:36:19.849Z,-0.169983
2019-01-09T09:37:29.406Z,-0.1297
2019-01-09T09:38:38.960Z,-0.149841
2019-01-09T09:39:48.521Z,-0.109558
2019-01-09T09:40:58.091Z,-0.149841
2019-01-09T09:42:07.642Z,-0.139771
2019-01-09T09:43:17.182Z,-0.149841
2019-01-09T09:44:26.748Z,-0.169983
2019-01-09T09:45:36.298Z,-0.180054
2019-01-09T09:46:45.839Z,-0.26062
2019-01-09T09:47:55.376Z,-0.290833
2019-01-09T09:49:04.913Z,-0.280762
2019-01-09T09:50:14.436Z,-0.310974
2019-01-09T09:51:23.976Z,-0.290833
2019-01-09T09:52:33.531Z,-0.321045
2019-01-09T09:53:43.054Z,-0.341187
2019-01-09T09:54:52.683Z,-0.341187
2019-01-09T09:56:02.280Z,-0.351257
2019-01-09T09:57:11.833Z,-0.341187
2019-01-09T09:58:21.396Z,-0.321045
2019-01-09T09:59:30.965Z,-0.310974
2019-01-09T10:00:40.504Z,-0.310974
2019-01-09T10:01:50.014Z,-0.351257
2019-01-09T10:02:59.533Z,-0.351257
2019-01-09T10:04:09.053Z,-0.391541
2019-01-09T10:05:18.594Z,-0.431824
2019-01-09T10:06:28.148Z,-0.472107
2019-01-09T10:07:37.682Z,-0.492249
2019-01-09T10:08:47.210Z,-0.492249
2019-01-09T10:09:56.776Z,-0.462036
2019-01-09T10:11:06.301Z,-0.441895
2019-01-09T10:12:15.824Z,-0.411682
2019-01-09T10:13:25.406Z,-0.361328
2019-01-09T10:14:34.938Z,-0.411682
2019-01-09T10:15:43.487Z,-0.391541
2019-01-09T10:16:52.017Z,-0.361328
2019-01-09T10:18:01.561Z,-0.321045
2019-01-09T10:19:11.075Z,-0.351257
2019-01-09T10:20:20.617Z,-0.321045
2019-01-09T10:21:30.170Z,-0.321045
2019-01-09T10:22:39.733Z,-0.290833
2019-01-09T10:23:49.363Z,-0.321045
2019-01-09T10:24:58.889Z,-0.361328
2019-01-09T10:26:08.405Z,-0.351257
2019-01-09T10:27:17.944Z,-0.361328
2019-01-09T10:28:27.526Z,-0.310974
2019-01-09T10:29:37.060Z,-0.361328
2019-01-09T10:30:46.685Z,-0.321045
2019-01-09T10:31:56.130Z,-0.321045
2019-01-09T10:33:05.636Z,-0.310974
2019-01-09T10:34:15.158Z,-0.310974
2019-01-09T10:35:24.714Z,-0.321045
2019-01-09T10:36:34.231Z,-0.351257
2019-01-09T10:37:43.744Z,-0.341187
2019-01-09T10:38:53.262Z,-0.341187
2019-01-09T10:40:02.793Z,-0.341187
2019-01-09T10:41:12.324Z,-0.38147
2019-01-09T10:42:21.863Z,-0.38147
2019-01-09T10:43:31.399Z,-0.310974
2019-01-09T10:44:40.977Z,-0.230408
2019-01-09T10:45:50.475Z,-0.280762
2019-01-09T10:46:59.996Z,-0.280762
2019-01-09T10:48:09.625Z,-0.280762
2019-01-09T10:49:19.140Z,-0.310974
2019-01-09T10:50:28.715Z,-0.341187
2019-01-09T10:51:38.265Z,-0.280762
2019-01-09T10:52:47.790Z,-0.310974
2019-01-09T10:53:57.315Z,-0.230408
2019-01-09T10:55:06.905Z,-0.250549
2019-01-09T10:56:16.466Z,-0.250549
2019-01-09T10:57:26.076Z,-0.321045
2019-01-09T10:58:35.788Z,-0.341187
2019-01-09T10:59:45.355Z,-0.321045
2019-01-09T11:00:54.893Z,-0.290833
2019-01-09T11:02:04.451Z,-0.321045
2019-01-09T11:03:13.990Z,-0.361328
2019-01-09T11:04:23.530Z,-0.431824
2019-01-09T11:05:33.075Z,-0.411682
2019-01-09T11:06:42.618Z,-0.441895
2019-01-09T11:07:52.137Z,-0.431824
2019-01-09T11:09:01.692Z,-0.361328
2019-01-09T11:10:11.232Z,-0.361328
2019-01-09T11:11:20.740Z,-0.341187
2019-01-09T11:12:30.262Z,-0.351257
2019-01-09T11:13:39.789Z,-0.361328
2019-01-09T11:14:49.322Z,-0.321045
2019-01-09T11:15:58.875Z,-0.321045
2019-01-09T11:17:08.389Z,-0.280762
2019-01-09T11:18:17.896Z,-0.341187
2019-01-09T11:19:27.424Z,-0.310974
2019-01-09T11:20:36.990Z,-0.321045
2019-01-09T11:21:46.534Z,-0.351257
2019-01-09T11:22:56.062Z,-0.361328
2019-01-09T11:24:05.574Z,-0.361328
2019-01-09T11:25:14.130Z,-0.351257
2019-01-09T11:26:23.696Z,-0.341187
2019-01-09T11:27:33.264Z,-0.391541
2019-01-09T11:28:41.791Z,-0.38147
2019-01-09T11:29:51.329Z,-0.361328
2019-01-09T11:31:00.894Z,-0.38147
2019-01-09T11:32:10.415Z,-0.391541
2019-01-09T11:33:19.950Z,-0.431824
2019-01-09T11:34:29.529Z,-0.431824
2019-01-09T11:35:39.108Z,-0.462036
2019-01-09T11:36:48.624Z,-0.492249
2019-01-09T11:37:58.141Z,-0.441895
2019-01-09T11:39:07.712Z,-0.391541
2019-01-09T11:40:17.291Z,-0.441895
2019-01-09T11:41:26.919Z,-0.431824
2019-01-09T11:42:36.451Z,-0.361328
2019-01-09T11:43:46.002Z,-0.341187
2019-01-09T11:44:55.559Z,-0.321045
2019-01-09T11:46:05.080Z,-0.351257
2019-01-09T11:47:14.609Z,-0.321045
2019-01-09T11:48:24.115Z,-0.351257
2019-01-09T11:49:33.690Z,-0.38147
2019-01-09T11:50:43.231Z,-0.361328
2019-01-09T11:51:52.751Z,-0.341187
2019-01-09T11:53:02.311Z,-0.321045
2019-01-09T11:54:11.852Z,-0.341187
2019-01-09T11:55:21.376Z,-0.391541
2019-01-09T11:56:30.954Z,-0.411682
2019-01-09T11:57:40.511Z,-0.411682
2019-01-09T11:58:50.035Z,-0.441895
2019-01-09T12:00:00.569Z,-0.38147
2019-01-09T12:01:10.117Z,-0.361328
2019-01-09T12:02:22.114Z,-0.38147
2019-01-09T12:03:29.213Z,-0.411682
2019-01-09T12:04:38.723Z,-0.441895
2019-01-09T12:05:48.302Z,-0.441895
2019-01-09T12:06:57.819Z,-0.431824
2019-01-09T12:08:07.376Z,-0.351257
2019-01-09T12:09:16.983Z,-0.341187
2019-01-09T12:10:30.085Z,-0.38147
2019-01-09T12:11:36.075Z,-0.361328
2019-01-09T12:12:45.608Z,-0.290833
2019-01-09T12:13:55.116Z,-0.250549
2019-01-09T12:15:04.702Z,-0.250549
2019-01-09T12:16:14.267Z,-0.290833
2019-01-09T12:17:23.833Z,-0.310974
2019-01-09T12:18:33.357Z,-0.351257
2019-01-09T12:19:42.907Z,-0.321045
2019-01-09T12:20:52.489Z,-0.341187
2019-01-09T12:22:01.998Z,-0.290833
2019-01-09T12:23:11.605Z,-0.290833
2019-01-09T12:24:21.131Z,-0.290833
2019-01-09T12:25:30.697Z,-0.26062
2019-01-09T12:26:40.255Z,-0.290833
2019-01-09T12:27:50.773Z,-0.280762
2019-01-09T12:29:00.288Z,-0.341187
2019-01-09T12:30:09.824Z,-0.341187
2019-01-09T12:31:19.377Z,-0.341187
2019-01-09T12:32:28.896Z,-0.351257
2019-01-09T12:33:38.456Z,-0.38147
2019-01-09T12:34:47.993Z,-0.391541
2019-01-09T12:35:57.569Z,-0.361328
2019-01-09T12:37:07.131Z,-0.38147
2019-01-09T12:38:16.647Z,-0.361328
2019-01-09T12:39:26.177Z,-0.361328
2019-01-09T12:40:35.767Z,-0.310974
2019-01-09T12:41:45.343Z,-0.290833
2019-01-09T12:42:54.923Z,-0.290833
2019-01-09T12:44:04.510Z,-0.26062
2019-01-09T12:45:14.045Z,-0.230408
2019-01-09T12:46:23.599Z,-0.200195
2019-01-09T12:47:33.158Z,-0.210266
2019-01-09T12:48:42.702Z,-0.210266
2019-01-09T12:49:52.278Z,-0.200195
2019-01-09T12:51:01.839Z,-0.230408
2019-01-09T12:52:10.378Z,-0.180054
2019-01-09T12:53:19.957Z,-0.169983
2019-01-09T12:54:30.519Z,-0.169983
2019-01-09T12:55:40.065Z,-0.149841
2019-01-09T12:56:49.639Z,-0.180054
2019-01-09T12:57:59.205Z,-0.180054
2019-01-09T12:59:08.758Z,-0.180054
2019-01-09T13:00:19.289Z,-0.200195
2019-01-09T13:01:28.867Z,-0.200195
2019-01-09T13:02:38.415Z,-0.250549
2019-01-09T13:03:47.980Z,-0.280762
2019-01-09T13:04:57.573Z,-0.26062
2019-01-09T13:06:07.125Z,-0.341187
2019-01-09T13:07:16.717Z,-0.310974
2019-01-09T13:08:26.256Z,-0.321045
2019-01-09T13:09:35.828Z,-0.351257
2019-01-09T13:10:45.355Z,-0.321045
2019-01-09T13:11:54.926Z,-0.290833
2019-01-09T13:13:04.492Z,-0.26062
2019-01-09T13:14:14.077Z,-0.280762
2019-01-09T13:15:23.623Z,-0.310974
2019-01-09T13:16:33.159Z,-0.250549
2019-01-09T13:17:43.683Z,-0.250549
2019-01-09T13:18:53.210Z,-0.280762
2019-01-09T13:20:03.751Z,-0.341187
2019-01-09T13:21:13.296Z,-0.361328
2019-01-09T13:22:22.843Z,-0.38147
2019-01-09T13:23:32.419Z,-0.341187